Data for 12/11/2006

Time Sea-Level Adjusted Pressure Absolute Pressure Temperature Relative Humidity Dew Point   
(mb) (inHg) (mb) (inHg) (C) (F) (%) (C) (F)
00:05 1015 29.97 845 24.95 1.8 35.3 66 -3.8 25.2
00:10 1015 29.97 845 24.95 1.7 35 67 -3.8 25.2
00:15 1016 30 845 24.95 1.5 34.7 67 -4 24.9
00:20 1016 30 845 24.95 1.4 34.4 68 -3.9 24.9
00:25 1016 30 845 24.95 1.2 34.2 69 -3.8 25.1
00:30 1016 30 845 24.95 1.2 34.1 70 -3.7 25.4
00:35 1016 30 845 24.95 1.2 34.2 70 -3.6 25.6
00:40 1016 30 845 24.95 1.2 34.1 74 -3.1 26.5
00:45 1016 30 845 24.95 1 33.8 76 -2.7 27.1
00:50 1016 30 845 24.95 0.9 33.5 80 -2.3 27.9
00:55 1016 30 845 24.95 0.8 33.4 84 -1.6 29.1
01:00 1016 30 845 24.95 0.7 33.2 87 -1.2 29.8
01:05 1016 30 845 24.95 0.6 33.1 89 -1 30.3
01:10 1016 30 846 24.98 0.6 33 90 -0.8 30.5
01:15 1016 30 846 24.98 0.5 32.9 91 -0.8 30.6
01:20 1016 30 846 24.98 0.5 33 92 -0.7 30.8
01:25 1017 30.03 846 24.98 0.6 33 91 -0.7 30.7
01:30 1017 30.03 846 24.98 0.4 32.7 91 -0.9 30.4
01:35 1017 30.03 846 24.98 -0.2 31.7 94 -1 30.2
01:40 1017 30.03 846 24.98 -0.2 31.7 95 -0.8 30.5
01:45 1017 30.03 846 24.98 -0.3 31.4 96 -1 30.3
01:50 1017 30.03 846 24.98 -0.3 31.5 96 -0.8 30.5
01:55 1017 30.03 846 24.98 -0.2 31.7 96 -0.8 30.6
02:00 1017 30.03 846 24.98 -0.3 31.4 96 -0.9 30.5
02:05 1017 30.03 846 24.98 -0.2 31.6 97 -0.7 30.7
02:10 1017 30.03 846 24.98 -0.3 31.4 97 -0.8 30.6
02:15 1017 30.03 846 24.98 -0.4 31.3 97 -0.8 30.5
02:20 1017 30.03 846 24.98 -0.5 31.1 96 -1 30.2
02:25 1017 30.03 846 24.98 -0.6 31 96 -1.2 29.9
02:30 1017 30.03 846 24.98 -0.6 31 96 -1.2 29.8
02:35 1017 30.03 846 24.98 -0.5 31 95 -1.2 29.9
02:40 1017 30.03 846 24.98 -0.5 31.1 96 -1.1 30.1
02:45 1017 30.03 846 24.98 -0.5 31.2 96 -1 30.2
02:50 1017 30.03 846 24.98 -0.3 31.5 96 -0.9 30.4
02:55 1017 30.03 847 25.01 -0.1 31.7 96 -0.7 30.7
03:00 1018 30.06 847 25.01 0 32.1 96 -0.6 30.9
03:05 1017 30.03 847 25.01 0.2 32.4 95 -0.5 31.1
03:10 1018 30.06 847 25.01 0.3 32.6 93 -0.6 30.8
03:15 1018 30.06 847 25.01 0.5 32.8 93 -0.5 31.1
03:20 1018 30.06 847 25.01 0.7 33.2 91 -0.6 30.9
03:25 1018 30.06 847 25.01 1 33.7 91 -0.4 31.3
03:30 1018 30.06 847 25.01 0.7 33.3 93 -0.3 31.4
03:35 1018 30.06 847 25.01 0.8 33.4 91 -0.5 31.1
03:40 1018 30.06 847 25.01 0.8 33.4 92 -0.4 31.3
03:45 1018 30.06 847 25.01 0.5 32.9 94 -0.4 31.4
03:50 1018 30.06 847 25.01 0.4 32.7 94 -0.4 31.2
03:55 1018 30.06 847 25.01 0.5 32.8 94 -0.4 31.4
04:00 1018 30.06 847 25.01 0.5 32.9 95 -0.2 31.6
04:05 1018 30.06 847 25.01 0.5 32.9 94 -0.3 31.5
04:10 1018 30.06 847 25.01 0.5 32.9 95 -0.3 31.5
04:15 1018 30.06 847 25.01 0.5 32.9 95 -0.3 31.5
04:20 1018 30.06 847 25.01 0.5 32.8 94 -0.3 31.4
04:25 1018 30.06 847 25.01 0.5 32.9 95 -0.3 31.5
04:30 1018 30.06 847 25.01 0.6 33.2 93 -0.3 31.4
04:35 1018 30.06 848 25.04 0.7 33.3 92 -0.3 31.4
04:40 1018 30.06 848 25.04 0.7 33.3 92 -0.5 31.2
04:45 1018 30.06 848 25.04 0.6 33 92 -0.5 31
04:50 1018 30.06 848 25.04 0.4 32.7 93 -0.6 31
04:55 1019 30.09 848 25.04 0.4 32.7 94 -0.4 31.3
05:00 1019 30.09 848 25.04 0.7 33.2 94 -0.3 31.5
05:05 1019 30.09 848 25.04 0.9 33.5 92 -0.2 31.6
05:10 1019 30.09 848 25.04 1.1 33.9 91 -0.2 31.7
05:15 1019 30.09 848 25.04 1 33.9 91 -0.3 31.5
05:20 1019 30.09 848 25.04 1.1 34 91 -0.2 31.6
05:25 1019 30.09 848 25.04 1.1 34 91 -0.2 31.6
05:30 1019 30.09 848 25.04 1 33.9 91 -0.3 31.5
05:35 1019 30.09 848 25.04 1 33.8 91 -0.3 31.5
05:40 1019 30.09 848 25.04 0.9 33.7 91 -0.4 31.4
05:45 1019 30.09 848 25.04 1 33.8 91 -0.4 31.3
05:50 1019 30.09 848 25.04 1 33.7 90 -0.5 31.1
05:55 1019 30.09 848 25.04 0.9 33.5 91 -0.5 31.1
06:00 1019 30.09 849 25.07 0.8 33.4 91 -0.5 31
06:05 1019 30.09 849 25.07 0.8 33.4 90 -0.7 30.8
06:10 1019 30.09 849 25.07 0.8 33.4 90 -0.7 30.8
06:15 1019 30.09 849 25.07 0.6 33 92 -0.6 30.9
06:20 1019 30.09 849 25.07 0.4 32.7 92 -0.7 30.7
06:25 1019 30.09 849 25.07 0.4 32.7 92 -0.7 30.7
06:30 1020 30.12 849 25.07 0.4 32.8 92 -0.7 30.7
06:35 1020 30.12 849 25.07 0.3 32.5 93 -0.7 30.7
06:40 1020 30.12 849 25.07 0.2 32.4 93 -0.8 30.6
06:45 1020 30.12 849 25.07 0.2 32.4 92 -0.9 30.4
06:50 1020 30.12 849 25.07 0.3 32.5 92 -0.9 30.5
06:55 1020 30.12 849 25.07 0.3 32.5 92 -0.9 30.4
07:00 1020 30.12 849 25.07 0.3 32.5 92 -0.9 30.4
07:05 1020 30.12 849 25.07 0.3 32.5 92 -0.9 30.3
07:10 1020 30.12 849 25.07 0.3 32.5 91 -1 30.1
07:15 1020 30.12 849 25.07 0.2 32.4 90 -1.2 29.8
07:20 1020 30.12 849 25.07 0.4 32.7 88 -1.4 29.4
07:25 1020 30.12 849 25.07 0.5 33 86 -1.5 29.2
07:30 1020 30.12 849 25.07 0.5 32.9 86 -1.6 29.1
07:35 1020 30.12 849 25.07 0.6 33 84 -1.8 28.8
07:40 1020 30.12 849 25.07 0.7 33.3 84 -1.7 29
07:45 1020 30.12 849 25.07 0.8 33.5 84 -1.5 29.2
07:50 1020 30.12 849 25.07 0.9 33.6 84 -1.6 29.2
07:55 1020 30.12 849 25.07 1.1 33.9 83 -1.6 29.1
08:00 1020 30.12 849 25.07 1.2 34.2 83 -1.3 29.6
08:05 1020 30.12 849 25.07 1.2 34.1 81 -1.7 29
08:10 1020 30.12 849 25.07 1.3 34.4 80 -1.7 28.9
08:15 1020 30.12 849 25.07 1.5 34.7 80 -1.7 29
08:20 1020 30.12 849 25.07 1.6 34.8 80 -1.5 29.2
08:25 1020 30.12 849 25.07 1.6 34.9 79 -1.6 29.2
08:30 1020 30.12 849 25.07 1.8 35.2 79 -1.5 29.3
08:35 1020 30.12 849 25.07 1.8 35.2 79 -1.5 29.3
08:40 1020 30.12 849 25.07 1.8 35.2 79 -1.4 29.4
08:45 1020 30.12 849 25.07 1.7 35.1 80 -1.4 29.5
08:50 1020 30.12 849 25.07 1.6 34.9 82 -1.1 30
08:55 1020 30.12 849 25.07 1.3 34.4 83 -1.2 29.8
09:00 1020 30.12 849 25.07 1.4 34.5 80 -1.6 29
09:05 1020 30.12 850 25.1 1.5 34.7 79 -1.7 29
09:10 1020 30.12 850 25.1 1.7 35 79 -1.5 29.2
09:15 1020 30.12 850 25.1 1.9 35.5 78 -1.5 29.3
09:20 1020 30.12 850 25.1 2 35.6 77 -1.7 29
09:25 1020 30.12 850 25.1 1.9 35.4 78 -1.6 29.1
09:30 1020 30.12 850 25.1 2 35.6 76 -1.7 28.9
09:35 1020 30.12 850 25.1 2.1 35.8 76 -1.7 29
09:40 1020 30.12 850 25.1 2.2 35.9 76 -1.6 29.2
09:45 1020 30.12 850 25.1 2.3 36.2 76 -1.6 29.2
09:50 1021 30.15 850 25.1 2.4 36.2 75 -1.7 29
09:55 1021 30.15 850 25.1 2.2 36 76 -1.6 29.1
10:00 1021 30.15 850 25.1 2.4 36.4 74 -1.7 29
10:05 1021 30.15 850 25.1 2.5 36.6 74 -1.6 29.2
10:10 1021 30.15 850 25.1 2.5 36.6 74 -1.6 29.1
10:15 1021 30.15 850 25.1 2.6 36.7 74 -1.6 29.1
10:20 1021 30.15 850 25.1 2.7 36.9 73 -1.7 29
10:25 1021 30.15 850 25.1 2.9 37.1 73 -1.6 29.2
10:30 1021 30.15 850 25.1 2.9 37.2 73 -1.5 29.2
10:35 1021 30.15 850 25.1 3.1 37.5 72 -1.6 29.2
10:40 1021 30.15 850 25.1 3.3 38 71 -1.4 29.4
10:45 1021 30.15 850 25.1 3.3 37.9 72 -1.4 29.6
10:50 1021 30.15 850 25.1 3.7 38.7 68 -1.6 29.1
10:55 1021 30.15 850 25.1 4.3 39.7 66 -1.5 29.3
11:00 1020 30.12 850 25.1 4.7 40.5 65 -1.3 29.6
11:05 1020 30.12 850 25.1 5.3 41.6 61 -1.5 29.3
11:10 1020 30.12 850 25.1 5.6 42 61 -1.3 29.6
11:15 1020 30.12 850 25.1 5.7 42.3 60 -1.5 29.3
11:20 1020 30.12 850 25.1 5.1 41.2 63 -1.4 29.4
11:25 1020 30.12 850 25.1 5.7 42.3 59 -1.7 28.9
11:30 1020 30.12 849 25.07 5.7 42.3 60 -1.3 29.7
11:35 1020 30.12 849 25.07 5.4 41.7 61 -1.4 29.4
11:40 1020 30.12 849 25.07 5.3 41.6 62 -1.3 29.6
11:45 1020 30.12 849 25.07 6 42.8 59 -1.4 29.5
11:50 1020 30.12 849 25.07 6.2 43.2 58 -1.4 29.4
11:55 1020 30.12 849 25.07 6.3 43.4 59 -1.1 30
12:00 1020 30.12 849 25.07 6.1 42.9 58 -1.5 29.3
12:05 1020 30.12 849 25.07 6.1 42.9 58 -1.6 29.2
12:10 1020 30.12 849 25.07 6.5 43.6 57 -1.5 29.3
12:15 1020 30.12 849 25.07 6.6 43.9 56 -1.4 29.5
12:20 1020 30.12 849 25.07 6.6 43.8 57 -1.4 29.5
12:25 1019 30.09 849 25.07 6.5 43.7 57 -1.4 29.6
12:30 1019 30.09 849 25.07 6.4 43.5 57 -1.5 29.2
12:35 1019 30.09 848 25.04 6 42.9 57 -1.7 28.9
12:40 1019 30.09 848 25.04 5.4 41.7 58 -2.1 28.3
12:45 1019 30.09 848 25.04 5.4 41.7 59 -2.1 28.3
12:50 1019 30.09 848 25.04 5.8 42.4 57 -2 28.4
12:55 1019 30.09 848 25.04 5.8 42.4 57 -2.2 28.1
13:00 1019 30.09 848 25.04 6.1 43 54 -2.6 27.4
13:05 1019 30.09 848 25.04 6.3 43.3 54 -2.4 27.7
13:10 1019 30.09 848 25.04 5.1 41.2 59 -2.3 27.9
13:15 1019 30.09 848 25.04 5.2 41.3 57 -2.6 27.4
13:20 1019 30.09 848 25.04 5 41 55 -3.4 26
13:25 1019 30.09 848 25.04 5.9 42.6 53 -3 26.6
13:30 1019 30.09 848 25.04 6.2 43.2 50 -3.4 25.9
13:35 1019 30.09 848 25.04 6.4 43.6 50 -3.2 26.3
13:40 1019 30.09 848 25.04 6.7 44.1 49 -3.3 26.1
13:45 1019 30.09 848 25.04 6.5 43.6 49 -3.4 25.9
13:50 1019 30.09 848 25.04 6.8 44.3 47 -3.6 25.6
13:55 1019 30.09 848 25.04 6.9 44.4 47 -3.6 25.5
14:00 1019 30.09 848 25.04 6.9 44.4 49 -3 26.5
14:05 1019 30.09 848 25.04 6.9 44.3 48 -3.5 25.7
14:10 1019 30.09 848 25.04 6.9 44.4 46 -3.9 24.9
14:15 1019 30.09 848 25.04 7.1 44.7 46 -3.8 25.1
14:20 1019 30.09 848 25.04 7.1 44.8 46 -3.8 25.2
14:25 1019 30.09 848 25.04 6.6 43.9 45 -4.4 24.1
14:30 1019 30.09 848 25.04 6.9 44.4 45 -4.3 24.2
14:35 1019 30.09 848 25.04 7.1 44.8 44 -4.3 24.3
14:40 1019 30.09 848 25.04 7 44.6 45 -4 24.8
14:45 1019 30.09 848 25.04 7 44.6 45 -4.1 24.6
14:50 1019 30.09 848 25.04 6.9 44.5 45 -4.3 24.2
14:55 1019 30.09 848 25.04 6.4 43.6 50 -3.1 26.3
15:00 1019 30.09 848 25.04 5.3 41.5 55 -3 26.6
15:05 1018 30.06 848 25.04 5.2 41.3 53 -3.7 25.4
15:10 1018 30.06 848 25.04 5.6 42.1 52 -3.6 25.5
15:15 1018 30.06 848 25.04 6 42.9 49 -3.7 25.3
15:20 1018 30.06 847 25.01 6.4 43.6 48 -3.9 25
15:25 1018 30.06 847 25.01 6.4 43.5 50 -3.3 26.1
15:30 1018 30.06 847 25.01 6.4 43.5 48 -3.8 25.1
15:35 1018 30.06 847 25.01 6 42.9 48 -4 24.8
15:40 1018 30.06 848 25.04 5.7 42.3 50 -3.8 25.1
15:45 1018 30.06 848 25.04 5.7 42.2 49 -4.3 24.3
15:50 1018 30.06 848 25.04 5.6 42.1 50 -4 24.8
15:55 1018 30.06 848 25.04 5.4 41.8 52 -3.7 25.4
16:00 1019 30.09 848 25.04 5.1 41.2 53 -3.7 25.3
16:05 1019 30.09 848 25.04 4.9 40.8 54 -3.6 25.6
16:10 1018 30.06 848 25.04 3.8 38.9 59 -3.4 25.9
16:15 1018 30.06 848 25.04 2.6 36.8 61 -4.1 24.7
16:20 1018 30.06 848 25.04 2.9 37.2 61 -4 24.8
16:25 1018 30.06 848 25.04 2.2 35.9 66 -3.6 25.6
16:30 1018 30.06 848 25.04 1.6 34.9 66 -4.1 24.6
16:35 1018 30.06 848 25.04 1.2 34.2 68 -4.1 24.6
16:40 1018 30.06 848 25.04 0.9 33.6 68 -4.3 24.2
16:45 1018 30.06 848 25.04 0.8 33.4 68 -4.4 24
16:50 1018 30.06 848 25.04 1 33.7 66 -4.7 23.6
16:55 1018 30.06 848 25.04 1 33.8 67 -4.4 24.2
17:00 1018 30.06 848 25.04 0.7 33.2 69 -4.5 24
17:05 1019 30.09 848 25.04 0.5 32.9 69 -4.5 23.9
17:10 1018 30.06 848 25.04 0.2 32.3 70 -4.6 23.7
17:15 1018 30.06 848 25.04 -0.5 31.2 72 -4.8 23.3
17:20 1018 30.06 848 25.04 -0.5 31.1 72 -5 23.1
17:25 1018 30.06 848 25.04 -0.3 31.4 70 -5.1 22.8
17:30 1018 30.06 848 25.04 -0 31.9 69 -5 23
17:35 1019 30.09 848 25.04 0 32 68 -5.1 22.8
17:40 1019 30.09 848 25.04 -0.2 31.7 69 -5.2 22.6
17:45 1019 30.09 848 25.04 0.1 32.1 69 -4.9 23.1
17:50 1019 30.09 848 25.04 0.2 32.4 67 -5.2 22.7
17:55 1019 30.09 848 25.04 0.2 32.3 66 -5.4 22.3
18:00 1019 30.09 848 25.04 -0.2 31.6 69 -5.2 22.6
18:05 1019 30.09 848 25.04 -0.5 31.1 70 -5.3 22.4
18:10 1019 30.09 848 25.04 -0.4 31.3 69 -5.5 22.2
18:15 1019 30.09 848 25.04 -0.6 31 70 -5.3 22.4
18:20 1019 30.09 848 25.04 -1.2 29.9 72 -5.6 22
18:25 1019 30.09 848 25.04 -1.7 29 73 -5.8 21.5
18:30 1019 30.09 848 25.04 -1.9 28.7 73 -6.2 20.9
18:35 1019 30.09 848 25.04 -1.5 29.2 70 -6.3 20.7
18:40 1019 30.09 848 25.04 -1.2 29.8 68 -6.3 20.6
18:45 1019 30.09 848 25.04 -1.1 29.9 67 -6.4 20.5
18:50 1019 30.09 848 25.04 -1.3 29.7 67 -6.6 20.1
18:55 1019 30.09 848 25.04 -1.2 29.9 66 -6.7 19.9
19:00 1019 30.09 848 25.04 -1.3 29.6 67 -6.7 20
19:05 1019 30.09 848 25.04 -1.5 29.4 67 -6.8 19.8
19:10 1019 30.09 848 25.04 -1.5 29.4 67 -6.9 19.6
19:15 1019 30.09 848 25.04 -1.6 29.2 67 -6.8 19.7
19:20 1019 30.09 848 25.04 -2 28.5 70 -6.8 19.8
19:25 1019 30.09 848 25.04 -2.6 27.3 71 -7.2 19.1
19:30 1019 30.09 848 25.04 -2 28.4 68 -7.2 19
19:35 1019 30.09 848 25.04 -1.7 29 67 -7 19.4
19:40 1019 30.09 848 25.04 -1.2 29.9 67 -6.6 20.1
19:45 1019 30.09 848 25.04 -1.3 29.6 66 -6.8 19.8
19:50 1019 30.09 848 25.04 -1.3 29.6 65 -7.1 19.2
19:55 1019 30.09 848 25.04 -1.2 29.8 66 -6.8 19.8
20:00 1019 30.09 848 25.04 -1 30.3 64 -6.9 19.6
20:05 1019 30.09 848 25.04 -0.7 30.7 64 -6.8 19.8
20:10 1019 30.09 848 25.04 -1 30.2 65 -6.7 19.9
20:15 1019 30.09 848 25.04 -1.7 28.9 67 -7.1 19.2
20:20 1019 30.09 848 25.04 -1.4 29.4 63 -7.5 18.4
20:25 1019 30.09 848 25.04 -1.7 29 67 -7.1 19.2
20:30 1018 30.06 848 25.04 -1.7 29 66 -7.1 19.2
20:35 1018 30.06 847 25.01 -1.5 29.4 66 -6.9 19.5
20:40 1018 30.06 847 25.01 -1.6 29.1 64 -7.5 18.5
20:45 1018 30.06 847 25.01 -1.3 29.7 60 -8 17.5
20:50 1018 30.06 847 25.01 -0.8 30.6 59 -7.9 17.7
20:55 1018 30.06 847 25.01 -0.4 31.3 57 -7.9 17.8
21:00 1018 30.06 847 25.01 -0.6 30.9 57 -8.1 17.4
21:05 1018 30.06 847 25.01 -0.5 31 56 -8.2 17.3
21:10 1018 30.06 847 25.01 -0.8 30.5 58 -8 17.5
21:15 1018 30.06 847 25.01 -1.1 30.1 59 -8.1 17.4
21:20 1018 30.06 847 25.01 -1.2 29.8 60 -8 17.5
21:25 1018 30.06 847 25.01 -1.1 30.1 59 -8.1 17.4
21:30 1018 30.06 847 25.01 -1.3 29.6 60 -8 17.6
21:35 1018 30.06 847 25.01 -1.3 29.7 59 -8.2 17.2
21:40 1018 30.06 847 25.01 -1.7 28.9 62 -8.1 17.4
21:45 1018 30.06 847 25.01 -1.7 28.9 61 -8.4 16.9
21:50 1018 30.06 847 25.01 -1.1 29.9 58 -8.5 16.8
21:55 1017 30.03 847 25.01 -0.8 30.6 58 -8.1 17.5
22:00 1018 30.06 847 25.01 -1.3 29.7 59 -8.2 17.2
22:05 1018 30.06 847 25.01 -1.5 29.4 59 -8.5 16.7
22:10 1018 30.06 847 25.01 -1.2 29.8 58 -8.5 16.7
22:15 1017 30.03 847 25.01 -1.2 29.9 57 -8.7 16.4
22:20 1017 30.03 847 25.01 -1 30.3 56 -8.6 16.6
22:25 1018 30.06 847 25.01 -0.7 30.8 56 -8.4 16.9
22:30 1018 30.06 847 25.01 -0.6 31 55 -8.6 16.6
22:35 1018 30.06 847 25.01 -0.6 31 55 -8.5 16.6
22:40 1018 30.06 847 25.01 -0.5 31.2 54 -8.6 16.5
22:45 1017 30.03 847 25.01 -0.8 30.6 57 -8.2 17.2
22:50 1017 30.03 847 25.01 -0.9 30.4 57 -8.3 17.1
22:55 1017 30.03 847 25.01 -0.8 30.5 58 -8.2 17.3
23:00 1017 30.03 847 25.01 -0.7 30.7 57 -8.3 17.1
23:05 1018 30.06 847 25.01 -0.6 30.9 57 -8.2 17.3
23:10 1017 30.03 847 25.01 -0.6 31 57 -8.1 17.4
23:15 1017 30.03 847 25.01 -0.3 31.5 55 -8.3 17
23:20 1017 30.03 847 25.01 -0.2 31.7 55 -8.1 17.4
23:25 1017 30.03 847 25.01 -0.1 31.7 55 -8.2 17.3
23:30 1017 30.03 847 25.01 -0.1 31.9 55 -8.1 17.5
23:35 1017 30.03 847 25.01 -0.1 31.9 55 -8.1 17.4
23:40 1017 30.03 847 25.01 0.1 32.2 54 -8.2 17.2
23:45 1017 30.03 847 25.01 0.2 32.4 54 -8 17.6
23:50 1017 30.03 847 25.01 0.3 32.5 53 -8.1 17.5
23:55 1017 30.03 847 25.01 0.4 32.7 53 -8 17.5
24:00 1017 30.03 847 25.01 0.4 32.6 53 -8.1 17.5